createdAt,value
2018-10-07T00:02:16.606Z,2.40
2018-10-07T00:04:44.365Z,2.70
2018-10-07T00:07:12.147Z,2.63
2018-10-07T00:09:40.027Z,2.73
2018-10-07T00:12:07.793Z,3.30
2018-10-07T00:14:35.493Z,3.10
2018-10-07T00:17:03.252Z,2.53
2018-10-07T00:19:31.015Z,2.20
2018-10-07T00:21:58.672Z,2.93
2018-10-07T00:24:26.399Z,2.60
2018-10-07T00:26:54.261Z,2.33
2018-10-07T00:29:21.946Z,2.90
2018-10-07T00:31:55.237Z,2.50
2018-10-07T00:34:22.958Z,2.80
2018-10-07T00:36:50.682Z,3.27
2018-10-07T00:39:18.470Z,2.73
2018-10-07T00:41:46.389Z,2.63
2018-10-07T00:44:14.529Z,2.80
2018-10-07T00:46:43.027Z,3.10
2018-10-07T00:49:11.248Z,2.47
2018-10-07T00:51:39.499Z,2.60
2018-10-07T00:54:07.674Z,2.83
2018-10-07T00:56:36.050Z,2.30
2018-10-07T00:59:04.238Z,2.93
2018-10-07T01:01:32.050Z,3.50
2018-10-07T01:03:59.789Z,3.83
2018-10-07T01:06:27.548Z,3.53
2018-10-07T01:08:55.606Z,3.23
2018-10-07T01:11:24.078Z,3.80
2018-10-07T01:13:52.353Z,3.33
2018-10-07T01:16:20.849Z,2.80
2018-10-07T01:18:48.934Z,2.70
2018-10-07T01:21:17.286Z,2.83
2018-10-07T01:23:45.449Z,2.60
2018-10-07T01:26:13.914Z,3.00
2018-10-07T01:28:42.189Z,3.63
2018-10-07T01:31:10.303Z,3.00
2018-10-07T01:33:38.737Z,3.20
2018-10-07T01:36:07.229Z,3.27
2018-10-07T01:38:35.630Z,3.07
2018-10-07T01:41:03.957Z,3.47
2018-10-07T01:43:32.090Z,3.70
2018-10-07T01:46:00.365Z,3.87
2018-10-07T01:48:28.594Z,3.93
2018-10-07T01:50:56.730Z,3.23
2018-10-07T01:53:25.205Z,3.23
2018-10-07T01:55:53.397Z,3.10
2018-10-07T01:58:21.709Z,4.07
2018-10-07T02:00:50.014Z,26.77
2018-10-07T02:03:18.053Z,3.60
2018-10-07T02:05:46.101Z,3.50
2018-10-07T02:08:14.317Z,3.43
2018-10-07T02:10:42.502Z,7.13
2018-10-07T02:13:10.925Z,5.00
2018-10-07T02:15:38.878Z,4.40
2018-10-07T02:18:07.000Z,4.40
2018-10-07T02:20:35.175Z,4.23
2018-10-07T02:23:03.470Z,4.27
2018-10-07T02:25:31.946Z,4.83
2018-10-07T02:28:00.242Z,4.90
2018-10-07T02:30:28.855Z,3.87
2018-10-07T02:32:56.762Z,4.43
2018-10-07T02:35:25.030Z,4.53
2018-10-07T02:37:53.498Z,5.03
2018-10-07T02:40:21.989Z,5.10
2018-10-07T02:42:50.434Z,5.23
2018-10-07T02:45:18.726Z,5.37
2018-10-07T02:47:46.809Z,6.37
2018-10-07T02:50:20.044Z,6.53
2018-10-07T02:52:50.775Z,5.80
2018-10-07T02:55:22.662Z,5.80
2018-10-07T02:57:52.170Z,5.70
2018-10-07T03:00:20.208Z,5.63
2018-10-07T03:02:49.063Z,5.87
2018-10-07T03:05:17.138Z,6.03
2018-10-07T03:07:45.713Z,7.40
2018-10-07T03:10:14.197Z,5.90
2018-10-07T03:12:42.451Z,5.23
2018-10-07T03:15:10.952Z,5.97
2018-10-07T03:17:39.169Z,6.00
2018-10-07T03:20:07.400Z,5.43
2018-10-07T03:22:35.558Z,5.90
2018-10-07T03:25:03.647Z,6.00
2018-10-07T03:27:32.066Z,5.40
2018-10-07T03:30:00.331Z,5.43
2018-10-07T03:32:28.790Z,5.07
2018-10-07T03:34:57.042Z,5.87
2018-10-07T03:37:25.509Z,6.37
2018-10-07T03:39:53.737Z,6.27
2018-10-07T03:42:22.099Z,6.73
2018-10-07T03:44:50.341Z,5.47
2018-10-07T03:47:18.927Z,5.17
2018-10-07T03:49:47.106Z,5.10
2018-10-07T03:52:15.419Z,5.40
2018-10-07T03:54:43.729Z,5.63
2018-10-07T03:57:12.155Z,4.57
2018-10-07T03:59:40.435Z,4.90
2018-10-07T04:02:08.722Z,5.23
2018-10-07T04:04:37.191Z,5.70
2018-10-07T04:07:05.757Z,7.90
2018-10-07T04:09:33.953Z,7.20
2018-10-07T04:12:02.232Z,11.17
2018-10-07T04:14:30.499Z,6.43
2018-10-07T04:16:58.846Z,6.47
2018-10-07T04:19:27.018Z,7.00
2018-10-07T04:21:56.053Z,7.27
2018-10-07T04:24:25.522Z,6.77
2018-10-07T04:26:53.710Z,5.83
2018-10-07T04:29:22.198Z,5.17
2018-10-07T04:31:50.090Z,4.97
2018-10-07T04:34:18.378Z,4.50
2018-10-07T04:36:46.617Z,4.77
2018-10-07T04:39:14.807Z,6.70
2018-10-07T04:41:43.839Z,6.67
2018-10-07T04:44:12.025Z,5.63
2018-10-07T04:46:40.354Z,4.97
2018-10-07T04:49:08.392Z,4.00
2018-10-07T04:51:36.443Z,5.70
2018-10-07T04:54:04.785Z,5.20
2018-10-07T04:56:32.771Z,5.37
2018-10-07T04:59:00.472Z,5.57
2018-10-07T05:01:28.298Z,5.00
2018-10-07T05:03:56.312Z,5.47
2018-10-07T05:06:33.510Z,4.40
2018-10-07T05:09:04.175Z,4.00
2018-10-07T05:11:32.453Z,3.70
2018-10-07T05:14:00.562Z,4.00
2018-10-07T05:16:34.913Z,3.40
2018-10-07T05:19:03.098Z,4.30
2018-10-07T05:21:30.857Z,4.67
2018-10-07T05:23:59.045Z,4.00
2018-10-07T05:26:27.298Z,2.70
2018-10-07T05:28:55.224Z,3.50
2018-10-07T05:31:23.598Z,4.23
2018-10-07T05:33:51.863Z,3.33
2018-10-07T05:36:20.302Z,4.23
2018-10-07T05:38:48.542Z,8.10
2018-10-07T05:41:16.690Z,8.20
2018-10-07T05:43:44.906Z,5.37
2018-10-07T05:46:13.091Z,4.70
2018-10-07T05:48:41.293Z,4.97
2018-10-07T05:51:09.020Z,4.53
2018-10-07T05:53:36.723Z,4.47
2018-10-07T05:56:04.545Z,5.27
2018-10-07T05:58:32.976Z,5.00
2018-10-07T06:01:34.236Z,5.90
2018-10-07T06:04:13.013Z,4.60
2018-10-07T06:06:41.190Z,5.10
2018-10-07T06:09:15.932Z,3.77
2018-10-07T06:11:44.050Z,4.50
2018-10-07T06:14:23.499Z,4.20
2018-10-07T06:16:51.708Z,3.57
2018-10-07T06:19:19.478Z,4.73
2018-10-07T06:21:47.235Z,3.50
2018-10-07T06:24:15.030Z,3.43
2018-10-07T06:26:42.794Z,3.10
2018-10-07T06:29:10.510Z,3.50
2018-10-07T06:31:38.357Z,3.60
2018-10-07T06:34:06.139Z,5.30
2018-10-07T06:36:33.893Z,3.60
2018-10-07T06:39:01.656Z,3.50
2018-10-07T06:41:29.460Z,3.30
2018-10-07T06:43:57.290Z,3.43
2018-10-07T06:46:25.069Z,3.43
2018-10-07T06:48:52.799Z,2.73
2018-10-07T06:51:20.729Z,3.17
2018-10-07T06:53:48.489Z,2.87
2018-10-07T06:56:16.244Z,2.93
2018-10-07T06:58:43.979Z,3.23
2018-10-07T07:01:11.777Z,2.20
2018-10-07T07:03:39.516Z,2.90
2018-10-07T07:06:08.173Z,2.40
2018-10-07T07:08:36.010Z,2.60
2018-10-07T07:11:03.690Z,2.10
2018-10-07T07:13:31.482Z,2.03
2018-10-07T07:15:59.317Z,2.33
2018-10-07T07:18:27.085Z,2.30
2018-10-07T07:20:54.794Z,2.37
2018-10-07T07:23:22.538Z,2.50
2018-10-07T07:25:50.274Z,2.40
2018-10-07T07:28:18.101Z,2.90
2018-10-07T07:30:45.878Z,2.73
2018-10-07T07:33:13.545Z,2.90
2018-10-07T07:35:41.289Z,3.20
2018-10-07T07:38:09.093Z,4.00
2018-10-07T07:40:36.864Z,3.67
2018-10-07T07:43:04.601Z,3.40
2018-10-07T07:45:32.349Z,3.10
2018-10-07T07:48:00.093Z,3.20
2018-10-07T07:50:27.865Z,3.10
2018-10-07T07:52:55.720Z,3.20
2018-10-07T07:55:23.433Z,2.60
2018-10-07T07:57:51.168Z,2.73
2018-10-07T08:00:18.968Z,2.73
2018-10-07T08:02:46.714Z,2.83
2018-10-07T08:05:14.458Z,2.67
2018-10-07T08:07:42.314Z,3.13
2018-10-07T08:10:10.157Z,2.33
2018-10-07T08:12:37.989Z,2.53
2018-10-07T08:15:06.238Z,2.17
2018-10-07T08:17:34.211Z,2.30
2018-10-07T08:20:01.899Z,2.33
2018-10-07T08:22:29.631Z,2.37
2018-10-07T08:24:57.350Z,2.70
2018-10-07T08:27:25.224Z,2.20
2018-10-07T08:29:53.081Z,2.33
2018-10-07T08:32:20.884Z,2.77
2018-10-07T08:34:48.641Z,2.23
2018-10-07T08:37:16.491Z,2.50
2018-10-07T08:39:44.210Z,2.43
2018-10-07T08:42:11.993Z,2.50
2018-10-07T08:44:39.761Z,2.30
2018-10-07T08:47:07.535Z,2.37
2018-10-07T08:49:35.278Z,2.40
2018-10-07T08:52:03.065Z,2.13
2018-10-07T08:54:30.806Z,2.33
2018-10-07T08:56:58.602Z,2.50
2018-10-07T08:59:26.427Z,2.13
2018-10-07T09:01:54.261Z,2.33
2018-10-07T09:04:22.062Z,2.63
2018-10-07T09:06:49.794Z,2.43
2018-10-07T09:09:17.542Z,2.47
2018-10-07T09:11:45.250Z,2.33
2018-10-07T09:14:13.002Z,2.30
2018-10-07T09:16:40.739Z,2.20
2018-10-07T09:19:08.514Z,2.20
2018-10-07T09:21:36.363Z,2.23
2018-10-07T09:24:04.125Z,2.57
2018-10-07T09:26:31.887Z,2.40
2018-10-07T09:28:59.819Z,2.20
2018-10-07T09:31:27.703Z,2.67
2018-10-07T09:33:55.474Z,2.23
2018-10-07T09:36:23.339Z,2.30
2018-10-07T09:38:51.130Z,2.20
2018-10-07T09:41:19.111Z,2.23
2018-10-07T09:43:46.890Z,2.40
2018-10-07T09:46:14.882Z,2.70
2018-10-07T09:48:42.785Z,2.23
2018-10-07T09:51:10.566Z,2.27
2018-10-07T09:53:38.294Z,2.23
2018-10-07T09:56:06.015Z,2.20
2018-10-07T09:58:33.950Z,2.00
2018-10-07T10:01:01.702Z,2.00
2018-10-07T10:03:29.641Z,2.40
2018-10-07T10:05:57.879Z,2.00
2018-10-07T10:08:25.720Z,2.63
2018-10-07T10:10:53.529Z,2.60
2018-10-07T10:13:21.358Z,2.83
2018-10-07T10:15:49.146Z,2.00
2018-10-07T10:18:27.468Z,2.40
2018-10-07T10:21:03.706Z,2.03
2018-10-07T10:25:44.574Z,2.20
2018-10-07T10:28:24.921Z,2.27
2018-10-07T10:31:27.970Z,2.57
2018-10-07T10:35:38.705Z,2.60
2018-10-07T10:38:25.860Z,2.43
2018-10-07T10:41:00.471Z,2.63
2018-10-07T10:43:33.465Z,2.27
2018-10-07T10:46:10.022Z,3.10
2018-10-07T10:50:49.834Z,2.47
2018-10-07T10:53:25.209Z,2.40
2018-10-07T10:56:03.839Z,2.50
2018-10-07T10:58:38.074Z,2.77
2018-10-07T11:01:16.382Z,2.27
2018-10-07T11:03:53.801Z,2.30
2018-10-07T11:07:06.817Z,2.50
2018-10-07T11:09:46.090Z,2.40
2018-10-07T11:12:46.077Z,2.50
2018-10-07T11:15:24.767Z,2.70
2018-10-07T11:18:04.966Z,2.60
2018-10-07T11:22:51.513Z,2.30
2018-10-07T11:27:32.804Z,2.30
2018-10-07T11:30:13.495Z,2.90
2018-10-07T11:32:59.186Z,2.50
2018-10-07T11:35:47.020Z,2.70
2018-10-07T11:38:24.947Z,2.70
2018-10-07T11:43:13.378Z,2.53
2018-10-07T11:45:50.158Z,2.23
2018-10-07T11:48:27.097Z,2.50
2018-10-07T11:51:03.414Z,2.27
2018-10-07T11:54:08.115Z,2.30
2018-10-07T11:56:36.094Z,2.20
2018-10-07T11:59:03.938Z,2.57
2018-10-07T12:01:32.468Z,2.57
2018-10-07T12:04:00.570Z,2.43
2018-10-07T12:06:29.263Z,2.03
2018-10-07T12:08:58.118Z,2.80
2018-10-07T12:11:28.491Z,2.13
2018-10-07T12:13:58.356Z,2.37
2018-10-07T12:16:27.345Z,2.40
2018-10-07T12:18:58.006Z,2.10
2018-10-07T12:21:28.034Z,2.37
2018-10-07T12:23:58.405Z,2.07
2018-10-07T12:26:28.130Z,2.23
2018-10-07T12:28:58.733Z,2.17
2018-10-07T12:31:28.918Z,2.30
2018-10-07T12:33:58.738Z,2.40
2018-10-07T12:36:28.077Z,2.50
2018-10-07T12:38:56.879Z,2.07
2018-10-07T12:41:25.602Z,2.80
2018-10-07T12:43:54.607Z,3.20
2018-10-07T12:46:24.390Z,2.80
2018-10-07T12:48:53.510Z,2.97
2018-10-07T12:51:21.840Z,2.80
2018-10-07T12:53:51.187Z,2.10
2018-10-07T12:56:20.018Z,2.70
2018-10-07T12:58:49.066Z,2.30
2018-10-07T13:01:18.514Z,2.50
2018-10-07T13:03:47.707Z,2.50
2018-10-07T13:06:16.174Z,2.87
2018-10-07T13:08:44.051Z,2.87
2018-10-07T13:11:12.458Z,3.27
2018-10-07T13:13:40.920Z,2.73
2018-10-07T13:16:09.526Z,2.73
2018-10-07T13:18:39.327Z,2.83
2018-10-07T13:21:07.893Z,2.87
2018-10-07T13:23:36.002Z,2.80
2018-10-07T13:26:03.990Z,3.07
2018-10-07T13:28:31.739Z,2.67
2018-10-07T13:30:59.650Z,3.13
2018-10-07T13:33:28.546Z,2.93
2018-10-07T13:35:57.346Z,2.43
2018-10-07T13:38:25.695Z,2.50
2018-10-07T13:40:54.095Z,2.67
2018-10-07T13:43:22.661Z,2.63
2018-10-07T13:45:50.845Z,2.47
2018-10-07T13:48:20.356Z,2.60
2018-10-07T13:50:48.623Z,2.60
2018-10-07T13:53:17.326Z,2.70
2018-10-07T13:55:45.287Z,2.50
2018-10-07T13:58:13.046Z,2.47
2018-10-07T14:00:40.907Z,3.23
2018-10-07T14:03:08.868Z,3.13
2018-10-07T14:05:37.484Z,2.77
2018-10-07T14:08:05.447Z,2.70
2018-10-07T14:10:33.292Z,3.10
2018-10-07T14:13:01.066Z,2.67
2018-10-07T14:15:28.876Z,2.40
2018-10-07T14:17:56.751Z,2.90
2018-10-07T14:20:24.547Z,3.03
2018-10-07T14:22:52.410Z,3.90
2018-10-07T14:25:20.395Z,3.27
2018-10-07T14:27:48.608Z,2.83
2018-10-07T14:30:16.567Z,2.83
2018-10-07T14:32:44.496Z,2.90
2018-10-07T14:35:12.914Z,3.93
2018-10-07T14:37:41.279Z,2.57
2018-10-07T14:40:09.200Z,2.93
2018-10-07T14:42:37.207Z,3.70
2018-10-07T14:45:05.322Z,3.77
2018-10-07T14:47:33.875Z,3.10
2018-10-07T14:50:02.014Z,3.63
2018-10-07T14:52:30.474Z,3.77
2018-10-07T14:54:59.226Z,2.90
2018-10-07T14:57:28.012Z,3.57
2018-10-07T14:59:57.068Z,4.33
2018-10-07T15:02:26.474Z,4.00
2018-10-07T15:04:55.583Z,3.53
2018-10-07T15:07:24.452Z,3.60
2018-10-07T15:09:53.582Z,3.50
2018-10-07T15:12:21.762Z,3.77
2018-10-07T15:14:50.459Z,3.73
2018-10-07T15:17:19.521Z,3.07
2018-10-07T15:19:49.063Z,4.10
2018-10-07T15:22:19.182Z,3.80
2018-10-07T15:24:48.606Z,4.70
2018-10-07T15:27:16.713Z,5.57
2018-10-07T15:29:45.419Z,7.20
2018-10-07T15:32:14.002Z,5.53
2018-10-07T15:34:42.032Z,4.97
2018-10-07T15:37:10.202Z,4.80
2018-10-07T15:39:38.287Z,4.90
2018-10-07T15:42:06.355Z,4.73
2018-10-07T15:44:34.232Z,3.53
2018-10-07T15:47:02.342Z,4.37
2018-10-07T15:49:33.183Z,3.20
2018-10-07T15:52:03.092Z,3.23
2018-10-07T15:54:33.906Z,4.10
2018-10-07T15:57:02.252Z,4.23
2018-10-07T15:59:31.287Z,4.90
2018-10-07T16:02:00.040Z,5.23
2018-10-07T16:04:29.067Z,14.40
2018-10-07T16:06:58.688Z,7.13
2018-10-07T16:09:28.704Z,6.47
2018-10-07T16:11:57.801Z,5.80
2018-10-07T16:14:28.535Z,5.43
2018-10-07T16:16:58.219Z,10.70
2018-10-07T16:19:27.789Z,9.83
2018-10-07T16:21:56.927Z,7.73
2018-10-07T16:24:25.957Z,6.27
2018-10-07T16:26:54.201Z,8.27
2018-10-07T16:29:23.344Z,7.97
2018-10-07T16:31:52.737Z,15.43
2018-10-07T16:34:21.746Z,11.80
2018-10-07T16:36:52.194Z,12.93
2018-10-07T16:39:23.074Z,12.17
2018-10-07T16:41:51.700Z,10.20
2018-10-07T16:44:21.521Z,13.70
2018-10-07T16:46:50.987Z,6.77
2018-10-07T16:49:20.915Z,8.57
2018-10-07T16:51:51.180Z,7.20
2018-10-07T16:54:21.892Z,7.77
2018-10-07T16:56:52.204Z,7.93
2018-10-07T16:59:22.201Z,8.70
2018-10-07T17:01:52.583Z,9.30
2018-10-07T17:04:22.377Z,7.07
2018-10-07T17:06:52.033Z,6.67
2018-10-07T17:09:21.320Z,5.87
2018-10-07T17:11:50.076Z,7.57
2018-10-07T17:14:20.272Z,7.60
2018-10-07T17:16:50.649Z,5.93
2018-10-07T17:19:19.899Z,4.50
2018-10-07T17:21:49.960Z,6.03
2018-10-07T17:24:20.702Z,6.30
2018-10-07T17:26:51.136Z,6.37
2018-10-07T17:29:21.514Z,6.67
2018-10-07T17:31:51.491Z,6.97
2018-10-07T17:34:21.898Z,7.60
2018-10-07T17:36:52.458Z,8.63
2018-10-07T17:39:23.250Z,9.37
2018-10-07T17:41:53.377Z,7.73
2018-10-07T17:44:23.582Z,6.50
2018-10-07T17:46:52.940Z,6.40
2018-10-07T17:49:21.613Z,6.17
2018-10-07T17:51:50.419Z,6.70
2018-10-07T17:54:19.588Z,6.67
2018-10-07T17:56:49.057Z,5.83
2018-10-07T17:59:18.792Z,6.70
2018-10-07T18:01:48.686Z,6.80
2018-10-07T18:04:18.619Z,6.97
2018-10-07T18:06:48.603Z,6.33
2018-10-07T18:09:18.474Z,6.87
2018-10-07T18:11:48.087Z,6.70
2018-10-07T18:14:17.493Z,6.63
2018-10-07T18:16:47.207Z,7.37
2018-10-07T18:19:17.694Z,9.53
2018-10-07T18:21:48.298Z,8.73
2018-10-07T18:24:18.167Z,9.40
2018-10-07T18:26:48.433Z,9.50
2018-10-07T18:29:18.559Z,8.97
2018-10-07T18:31:47.749Z,8.63
2018-10-07T18:34:17.702Z,8.40
2018-10-07T18:36:46.705Z,7.63
2018-10-07T18:39:15.740Z,12.90
2018-10-07T18:41:45.103Z,11.00
2018-10-07T18:44:15.242Z,8.97
2018-10-07T18:46:45.800Z,9.13
2018-10-07T18:49:16.096Z,12.17
2018-10-07T18:51:46.868Z,9.13
2018-10-07T18:54:17.300Z,6.50
2018-10-07T18:56:47.804Z,7.17
2018-10-07T18:59:17.755Z,8.03
2018-10-07T19:01:48.386Z,10.27
2018-10-07T19:04:19.097Z,10.93
2018-10-07T19:06:49.791Z,10.13
2018-10-07T19:09:19.967Z,9.23
2018-10-07T19:11:50.306Z,9.50
2018-10-07T19:14:20.741Z,7.37
2018-10-07T19:16:51.430Z,8.20
2018-10-07T19:19:21.827Z,8.93
2018-10-07T19:21:51.972Z,9.20
2018-10-07T19:24:22.134Z,9.27
2018-10-07T19:26:52.659Z,9.60
2018-10-07T19:29:26.076Z,10.66
2018-10-07T19:31:55.830Z,13.87
2018-10-07T19:34:25.143Z,10.03
2018-10-07T19:36:54.785Z,10.20
2018-10-07T19:39:24.289Z,9.83
2018-10-07T19:41:53.807Z,7.40
2018-10-07T19:44:22.960Z,7.80
2018-10-07T19:46:52.571Z,7.53
2018-10-07T19:49:21.391Z,7.78
2018-10-07T19:51:51.071Z,7.40
2018-10-07T19:54:21.058Z,6.20
2018-10-07T19:56:49.954Z,7.10
2018-10-07T19:59:19.044Z,6.20
2018-10-07T20:01:47.341Z,6.33
2018-10-07T20:04:15.884Z,5.97
2018-10-07T20:06:44.771Z,5.37
2018-10-07T20:09:13.291Z,4.60
2018-10-07T20:11:42.201Z,5.90
2018-10-07T20:14:10.348Z,5.30
2018-10-07T20:16:38.485Z,4.97
2018-10-07T20:19:06.321Z,4.80
2018-10-07T20:21:34.219Z,4.10
2018-10-07T20:24:02.082Z,4.80
2018-10-07T20:26:29.911Z,4.13
2018-10-07T20:28:57.669Z,4.00
2018-10-07T20:31:25.475Z,5.57
2018-10-07T20:33:53.408Z,5.23
2018-10-07T20:36:21.090Z,4.60
2018-10-07T20:38:48.888Z,5.03
2018-10-07T20:41:16.603Z,4.67
2018-10-07T20:43:44.375Z,4.33
2018-10-07T20:46:12.111Z,4.80
2018-10-07T20:48:39.809Z,4.80
2018-10-07T20:51:07.537Z,5.50
2018-10-07T20:53:35.306Z,5.17
2018-10-07T20:56:03.263Z,4.77
2018-10-07T20:58:30.975Z,5.53
2018-10-07T21:00:58.789Z,4.47
2018-10-07T21:03:26.465Z,4.60
2018-10-07T21:05:54.201Z,5.27
2018-10-07T21:08:22.006Z,4.77
2018-10-07T21:10:49.706Z,5.83
2018-10-07T21:13:17.475Z,5.83
2018-10-07T21:15:45.307Z,5.57
2018-10-07T21:18:13.107Z,6.83
2018-10-07T21:20:40.900Z,6.03
2018-10-07T21:23:08.730Z,6.50
2018-10-07T21:25:36.491Z,5.80
2018-10-07T21:28:04.238Z,5.50
2018-10-07T21:30:32.017Z,6.10
2018-10-07T21:32:59.750Z,6.20
2018-10-07T21:35:27.445Z,6.60
2018-10-07T21:37:55.174Z,6.20
2018-10-07T21:40:22.909Z,6.17
2018-10-07T21:42:50.654Z,6.57
2018-10-07T21:45:18.463Z,6.77
2018-10-07T21:47:46.190Z,6.30
2018-10-07T21:50:13.894Z,7.10
2018-10-07T21:52:41.630Z,7.20
2018-10-07T21:55:09.334Z,7.60
2018-10-07T21:57:37.119Z,6.97
2018-10-07T22:00:06.418Z,6.53
2018-10-07T22:02:34.151Z,7.07
2018-10-07T22:05:01.887Z,7.03
2018-10-07T22:07:29.648Z,7.53
2018-10-07T22:09:57.458Z,6.83
2018-10-07T22:12:25.152Z,7.73
2018-10-07T22:14:52.881Z,7.50
2018-10-07T22:17:20.659Z,7.50
2018-10-07T22:19:48.404Z,7.10
2018-10-07T22:22:16.209Z,7.53
2018-10-07T22:24:43.917Z,7.53
2018-10-07T22:27:11.682Z,6.87
2018-10-07T22:29:39.471Z,7.57
2018-10-07T22:32:07.230Z,7.50
2018-10-07T22:34:34.958Z,8.13
2018-10-07T22:37:02.665Z,7.10
2018-10-07T22:39:30.410Z,6.50
2018-10-07T22:41:58.122Z,7.20
2018-10-07T22:44:25.898Z,6.57
2018-10-07T22:46:53.598Z,7.80
2018-10-07T22:49:21.589Z,9.20
2018-10-07T22:51:49.364Z,8.23
2018-10-07T22:54:17.016Z,7.93
2018-10-07T22:56:44.775Z,8.27
2018-10-07T22:59:12.567Z,8.10
2018-10-07T23:01:40.275Z,7.97
2018-10-07T23:04:07.977Z,8.20
2018-10-07T23:06:35.752Z,9.10
2018-10-07T23:09:05.287Z,8.63
2018-10-07T23:11:32.998Z,8.57
2018-10-07T23:14:00.721Z,9.13
2018-10-07T23:16:28.420Z,8.37
2018-10-07T23:18:56.146Z,8.50
2018-10-07T23:21:23.917Z,8.53
2018-10-07T23:23:51.666Z,7.87
2018-10-07T23:26:19.535Z,7.53
2018-10-07T23:28:47.389Z,7.30
2018-10-07T23:31:15.186Z,7.30
2018-10-07T23:33:42.952Z,7.60
2018-10-07T23:36:10.732Z,7.70
2018-10-07T23:38:38.467Z,8.57
2018-10-07T23:41:06.357Z,8.13
2018-10-07T23:43:34.170Z,8.83
2018-10-07T23:46:01.857Z,8.80
2018-10-07T23:48:29.566Z,9.20
2018-10-07T23:50:57.311Z,9.00
2018-10-07T23:53:25.000Z,9.73
2018-10-07T23:55:52.726Z,8.77
2018-10-07T23:58:20.486Z,9.27
